createdAt,value
2023-05-06T00:01:46.745Z,94310.19
2023-05-06T00:04:13.468Z,94330.97
2023-05-06T00:06:41.926Z,94320.97
2023-05-06T00:09:08.584Z,94324.00
2023-05-06T00:11:35.287Z,94312.78
2023-05-06T00:14:02.069Z,94330.06
2023-05-06T00:16:28.921Z,94323.56
2023-05-06T00:18:55.968Z,94323.56
2023-05-06T00:21:22.692Z,94304.31
2023-05-06T00:23:49.461Z,94314.13
2023-05-06T00:26:16.231Z,94316.81
2023-05-06T00:28:42.853Z,94308.50
2023-05-06T00:31:09.773Z,94306.59
2023-05-06T00:33:36.690Z,94294.69
2023-05-06T00:36:03.502Z,94306.69
2023-05-06T00:38:30.132Z,94308.78
2023-05-06T00:40:56.878Z,94301.41
2023-05-06T00:43:23.728Z,94296.81
2023-05-06T00:45:51.394Z,94289.41
2023-05-06T00:48:18.615Z,94285.16
2023-05-06T00:50:45.761Z,94275.84
2023-05-06T00:53:12.693Z,94284.16
2023-05-06T00:55:40.179Z,94292.59
2023-05-06T00:58:07.578Z,94294.13
2023-05-06T01:00:34.826Z,94288.97
2023-05-06T01:03:02.217Z,94279.72
2023-05-06T01:05:33.469Z,94288.75
2023-05-06T01:08:09.453Z,94284.25
2023-05-06T01:10:55.554Z,94287.19
2023-05-06T01:13:34.545Z,94288.69
2023-05-06T01:16:02.255Z,94287.34
2023-05-06T01:18:32.604Z,94301.94
2023-05-06T01:21:00.337Z,94302.84
2023-05-06T01:23:27.073Z,94297.94
2023-05-06T01:25:53.742Z,94297.38
2023-05-06T01:28:21.056Z,94299.75
2023-05-06T01:31:03.790Z,94301.41
2023-05-06T01:33:57.249Z,94302.09
2023-05-06T01:37:12.516Z,94313.81
2023-05-06T01:39:41.644Z,94311.13
2023-05-06T01:42:10.825Z,94310.38
2023-05-06T01:44:39.469Z,94313.59
2023-05-06T01:47:08.838Z,94309.78
2023-05-06T01:49:35.958Z,94312.59
2023-05-06T01:52:02.912Z,94309.13
2023-05-06T01:54:29.725Z,94319.31
2023-05-06T01:56:56.325Z,94314.72
2023-05-06T01:59:23.234Z,94323.66
2023-05-06T02:01:51.770Z,94316.28
2023-05-06T02:04:18.507Z,94308.19
2023-05-06T02:06:45.518Z,94310.91
2023-05-06T02:09:14.977Z,94308.09
2023-05-06T02:11:46.347Z,94301.16
2023-05-06T02:14:13.536Z,94300.25
2023-05-06T02:16:40.340Z,94297.00
2023-05-06T02:19:07.144Z,94298.47
2023-05-06T02:21:34.650Z,94303.44
2023-05-06T02:24:01.351Z,94302.44
2023-05-06T02:26:28.004Z,94297.50
2023-05-06T02:28:54.653Z,94299.66
2023-05-06T02:31:21.564Z,94300.22
2023-05-06T02:33:48.273Z,94291.38
2023-05-06T02:36:14.949Z,94299.44
2023-05-06T02:38:41.575Z,94297.09
2023-05-06T02:41:08.250Z,94300.56
2023-05-06T02:43:34.910Z,94309.41
2023-05-06T02:46:01.679Z,94299.34
2023-05-06T02:48:28.394Z,94296.31
2023-05-06T02:50:55.042Z,94295.84
2023-05-06T02:53:22.084Z,94289.38
2023-05-06T02:55:48.748Z,94291.28
2023-05-06T02:58:15.378Z,94293.16
2023-05-06T03:00:42.086Z,94291.91
2023-05-06T03:03:09.960Z,94289.03
2023-05-06T03:05:36.747Z,94282.53
2023-05-06T03:08:03.513Z,94283.75
2023-05-06T03:10:31.156Z,94287.91
2023-05-06T03:12:58.878Z,94286.34
2023-05-06T03:15:27.271Z,94295.31
2023-05-06T03:17:54.186Z,94296.19
2023-05-06T03:20:21.775Z,94293.28
2023-05-06T03:22:53.512Z,94293.28
2023-05-06T03:25:21.864Z,94283.44
2023-05-06T03:27:48.954Z,94286.13
2023-05-06T03:30:19.591Z,94293.84
2023-05-06T03:32:48.884Z,94290.38
2023-05-06T03:35:21.769Z,94289.13
2023-05-06T03:37:52.724Z,94286.78
2023-05-06T03:40:21.328Z,94285.88
2023-05-06T03:42:48.615Z,94276.25
2023-05-06T03:45:15.673Z,94288.09
2023-05-06T03:47:43.738Z,94281.75
2023-05-06T03:50:11.594Z,94285.56
2023-05-06T03:52:39.519Z,94288.91
2023-05-06T03:55:07.021Z,94283.63
2023-05-06T03:57:35.407Z,94278.16
2023-05-06T04:00:02.606Z,94286.88
2023-05-06T04:02:35.250Z,94296.63
2023-05-06T04:05:03.864Z,94295.97
2023-05-06T04:07:31.118Z,94292.50
2023-05-06T04:09:57.839Z,94290.94
2023-05-06T04:12:25.013Z,94290.47
2023-05-06T04:14:52.357Z,94285.91
2023-05-06T04:17:19.337Z,94289.81
2023-05-06T04:19:47.463Z,94288.38
2023-05-06T04:22:14.162Z,94286.78
2023-05-06T04:24:45.669Z,94285.44
2023-05-06T04:27:13.467Z,94290.59
2023-05-06T04:29:43.133Z,94291.06
2023-05-06T04:32:11.841Z,94293.03
2023-05-06T04:34:38.684Z,94284.66
2023-05-06T04:37:07.202Z,94294.16
2023-05-06T04:39:48.824Z,94294.59
2023-05-06T04:42:18.815Z,94300.56
2023-05-06T04:44:54.996Z,94297.19
2023-05-06T04:47:27.072Z,94308.97
2023-05-06T04:49:55.028Z,94308.97
2023-05-06T04:52:23.138Z,94310.97
2023-05-06T04:54:49.991Z,94300.66
2023-05-06T04:57:16.745Z,94316.88
2023-05-06T04:59:44.896Z,94310.41
2023-05-06T05:02:11.977Z,94307.72
2023-05-06T05:04:41.402Z,94306.28
2023-05-06T05:07:08.898Z,94307.19
2023-05-06T05:09:36.099Z,94310.44
2023-05-06T05:12:03.490Z,94314.09
2023-05-06T05:14:33.749Z,94321.59
2023-05-06T05:17:01.098Z,94314.09
2023-05-06T05:19:28.509Z,94324.81
2023-05-06T05:21:56.625Z,94317.41
2023-05-06T05:24:25.346Z,94320.19
2023-05-06T05:26:51.972Z,94322.53
2023-05-06T05:29:18.772Z,94328.69
2023-05-06T05:31:47.427Z,94320.97
2023-05-06T05:34:14.284Z,94321.28
2023-05-06T05:36:41.199Z,94327.44
2023-05-06T05:39:10.817Z,94331.31
2023-05-06T05:41:42.983Z,94319.53
2023-05-06T05:44:10.285Z,94325.91
2023-05-06T05:46:39.353Z,94325.44
2023-05-06T05:49:06.838Z,94329.03
2023-05-06T05:51:34.257Z,94331.94
2023-05-06T05:54:04.120Z,94325.06
2023-05-06T05:56:31.321Z,94328.34
2023-05-06T05:58:58.463Z,94330.50
2023-05-06T06:01:25.776Z,94338.78
2023-05-06T06:03:54.471Z,94339.66
2023-05-06T06:06:22.327Z,94346.44
2023-05-06T06:08:49.663Z,94339.22
2023-05-06T06:11:17.059Z,94345.91
2023-05-06T06:13:44.569Z,94352.63
2023-05-06T06:16:12.794Z,94344.38
2023-05-06T06:18:39.631Z,94345.03
2023-05-06T06:21:06.607Z,94355.16
2023-05-06T06:23:34.909Z,94348.69
2023-05-06T06:26:03.845Z,94357.41
2023-05-06T06:28:32.674Z,94355.22
2023-05-06T06:30:59.582Z,94355.22
2023-05-06T06:33:26.232Z,94354.19
2023-05-06T06:35:52.934Z,94352.84
2023-05-06T06:38:19.608Z,94350.94
2023-05-06T06:40:46.245Z,94364.31
2023-05-06T06:43:12.962Z,94362.00
2023-05-06T06:45:51.725Z,94367.28
2023-05-06T06:48:19.593Z,94364.50
2023-05-06T06:50:46.565Z,94368.19
2023-05-06T06:53:13.217Z,94365.09
2023-05-06T06:55:43.241Z,94373.44
2023-05-06T06:58:09.904Z,94369.00
2023-05-06T07:00:36.611Z,94377.19
2023-05-06T07:03:03.422Z,94374.22
2023-05-06T07:05:30.128Z,94376.31
2023-05-06T07:07:57.206Z,94380.75
2023-05-06T07:10:23.972Z,94384.72
2023-05-06T07:12:50.646Z,94383.56
2023-05-06T07:15:17.336Z,94388.00
2023-05-06T07:17:43.991Z,94386.22
2023-05-06T07:20:11.340Z,94394.78
2023-05-06T07:22:37.961Z,94399.28
2023-05-06T07:25:04.927Z,94398.28
2023-05-06T07:27:31.658Z,94392.75
2023-05-06T07:29:58.363Z,94394.78
2023-05-06T07:32:25.026Z,94405.00
2023-05-06T07:34:51.767Z,94407.78
2023-05-06T07:37:18.427Z,94404.63
2023-05-06T07:39:45.197Z,94403.00
2023-05-06T07:42:13.211Z,94401.81
2023-05-06T07:44:40.344Z,94400.88
2023-05-06T07:47:07.210Z,94396.53
2023-05-06T07:49:35.232Z,94400.28
2023-05-06T07:52:03.501Z,94396.81
2023-05-06T07:54:31.818Z,94406.91
2023-05-06T07:56:58.717Z,94405.97
2023-05-06T07:59:25.449Z,94414.38
2023-05-06T08:01:52.239Z,94410.13
2023-05-06T08:04:19.029Z,94419.47
2023-05-06T08:07:13.917Z,94397.00
2023-05-06T08:09:40.610Z,94412.19
2023-05-06T08:12:07.435Z,94412.56
2023-05-06T08:14:34.148Z,94414.78
2023-05-06T08:17:00.913Z,94418.53
2023-05-06T08:19:27.645Z,94418.59
2023-05-06T08:21:54.437Z,94414.31
2023-05-06T08:24:21.117Z,94420.53
2023-05-06T08:26:47.725Z,94406.34
2023-05-06T08:29:14.449Z,94419.56
2023-05-06T08:31:41.199Z,94421.88
2023-05-06T08:34:07.923Z,94427.19
2023-05-06T08:36:34.561Z,94425.25
2023-05-06T08:39:01.299Z,94421.28
2023-05-06T08:41:30.463Z,94428.03
2023-05-06T08:43:58.782Z,94423.59
2023-05-06T08:46:27.429Z,94428.00
2023-05-06T08:48:54.108Z,94428.16
2023-05-06T08:51:27.839Z,94429.03
2023-05-06T08:53:55.975Z,94428.28
2023-05-06T08:56:24.336Z,94424.03
2023-05-06T08:58:52.135Z,94425.53
2023-05-06T09:01:18.843Z,94428.16
2023-05-06T09:03:48.048Z,94430.31
2023-05-06T09:06:14.724Z,94415.63
2023-05-06T09:08:41.377Z,94437.50
2023-05-06T09:11:29.555Z,94434.44
2023-05-06T09:14:16.543Z,94430.19
2023-05-06T09:16:50.888Z,94423.97
2023-05-06T09:19:19.755Z,94428.63
2023-05-06T09:21:49.701Z,94433.72
2023-05-06T09:24:17.162Z,94434.06
2023-05-06T09:26:46.430Z,94426.88
2023-05-06T09:29:13.421Z,94439.94
2023-05-06T09:31:43.036Z,94439.25
2023-05-06T09:34:10.644Z,94434.38
2023-05-06T09:36:37.763Z,94428.53
2023-05-06T09:39:05.149Z,94431.75
2023-05-06T09:41:32.211Z,94422.00
2023-05-06T09:43:59.418Z,94423.16
2023-05-06T09:46:29.895Z,94418.50
2023-05-06T09:48:58.282Z,94425.38
2023-05-06T09:51:27.858Z,94417.63
2023-05-06T09:53:57.824Z,94415.25
2023-05-06T09:56:25.119Z,94416.09
2023-05-06T09:58:54.407Z,94412.22
2023-05-06T10:01:32.799Z,94411.63
2023-05-06T10:04:08.131Z,94410.13
2023-05-06T10:06:36.949Z,94410.19
2023-05-06T10:09:06.252Z,94405.09
2023-05-06T10:11:33.315Z,94400.50
2023-05-06T10:14:01.573Z,94396.66
2023-05-06T10:16:29.249Z,94398.59
2023-05-06T10:18:56.747Z,94399.59
2023-05-06T10:21:26.362Z,94396.69
2023-05-06T10:24:09.545Z,94398.78
2023-05-06T10:26:37.563Z,94397.94
2023-05-06T10:29:09.904Z,94379.94
2023-05-06T10:31:44.293Z,94391.41
2023-05-06T10:34:11.021Z,94381.31
2023-05-06T10:36:40.614Z,94378.59
2023-05-06T10:39:10.285Z,94377.00
2023-05-06T10:41:37.512Z,94370.00
2023-05-06T10:44:04.237Z,94368.38
2023-05-06T10:46:31.116Z,94359.13
2023-05-06T10:49:08.499Z,94359.13
2023-05-06T10:51:36.933Z,94367.06
2023-05-06T10:54:04.688Z,94366.41
2023-05-06T10:56:38.482Z,94368.25
2023-05-06T10:59:08.250Z,94360.31
2023-05-06T11:01:44.824Z,94368.50
2023-05-06T11:04:18.662Z,94366.91
2023-05-06T11:06:48.238Z,94355.81
2023-05-06T11:09:22.861Z,94356.59
2023-05-06T11:12:06.567Z,94355.38
2023-05-06T11:14:38.565Z,94357.31
2023-05-06T11:17:07.411Z,94353.75
2023-05-06T11:19:38.861Z,94347.16
2023-05-06T11:22:07.090Z,94351.94
2023-05-06T11:24:42.210Z,94355.56
2023-05-06T11:27:10.679Z,94349.97
2023-05-06T11:29:37.690Z,94330.09
2023-05-06T11:32:07.264Z,94349.53
2023-05-06T11:34:35.471Z,94340.16
2023-05-06T11:37:04.427Z,94345.59
2023-05-06T11:39:39.954Z,94345.97
2023-05-06T11:42:07.927Z,94344.56
2023-05-06T11:44:36.982Z,94327.78
2023-05-06T11:47:05.983Z,94339.84
2023-05-06T11:49:40.836Z,94328.63
2023-05-06T11:52:12.807Z,94341.78
2023-05-06T11:54:41.959Z,94336.59
2023-05-06T11:57:09.409Z,94336.88
2023-05-06T11:59:38.085Z,94327.94
2023-05-06T12:02:07.390Z,94334.56
2023-05-06T12:04:45.441Z,94338.31
2023-05-06T12:07:13.895Z,94333.44
2023-05-06T12:09:49.991Z,94330.19
2023-05-06T12:12:20.088Z,94336.69
2023-05-06T12:14:49.334Z,94331.34
2023-05-06T12:17:16.745Z,94335.81
2023-05-06T12:19:43.480Z,94329.72
2023-05-06T12:22:21.747Z,94327.66
2023-05-06T12:24:49.084Z,94323.97
2023-05-06T12:27:29.495Z,94325.41
2023-05-06T12:29:56.687Z,94327.34
2023-05-06T12:32:23.464Z,94326.25
2023-05-06T12:34:50.287Z,94326.66
2023-05-06T12:37:29.857Z,94328.63
2023-05-06T12:40:08.219Z,94320.91
2023-05-06T12:42:35.029Z,94316.72
2023-05-06T12:45:13.625Z,94323.19
2023-05-06T12:47:40.436Z,94322.31
2023-05-06T12:50:07.426Z,94318.50
2023-05-06T12:52:34.076Z,94324.75
2023-05-06T12:55:01.829Z,94318.34
2023-05-06T12:57:28.446Z,94315.88
2023-05-06T12:59:56.398Z,94321.66
2023-05-06T13:02:23.267Z,94312.69
2023-05-06T13:04:50.077Z,94327.34
2023-05-06T13:07:16.764Z,94320.72
2023-05-06T13:09:44.604Z,94321.97
2023-05-06T13:12:11.476Z,94317.47
2023-05-06T13:14:40.162Z,94309.50
2023-05-06T13:17:07.985Z,94303.41
2023-05-06T13:19:35.191Z,94299.06
2023-05-06T13:22:02.126Z,94297.53
2023-05-06T13:24:29.685Z,94299.56
2023-05-06T13:26:57.307Z,94296.69
2023-05-06T13:29:24.624Z,94299.53
2023-05-06T13:31:51.761Z,94291.91
2023-05-06T13:34:18.703Z,94293.22
2023-05-06T13:36:46.814Z,94282.91
2023-05-06T13:39:13.889Z,94273.38
2023-05-06T13:41:40.707Z,94272.91
2023-05-06T13:44:07.476Z,94265.59
2023-05-06T13:46:34.370Z,94266.41
2023-05-06T13:49:01.049Z,94273.84
2023-05-06T13:51:29.333Z,94271.66
2023-05-06T13:53:56.404Z,94250.56
2023-05-06T13:56:23.114Z,94259.69
2023-05-06T13:58:49.908Z,94262.25
2023-05-06T14:01:16.594Z,94258.25
2023-05-06T14:03:43.312Z,94254.44
2023-05-06T14:06:09.976Z,94248.53
2023-05-06T14:08:36.634Z,94256.31
2023-05-06T14:11:03.364Z,94250.69
2023-05-06T14:13:32.070Z,94237.53
2023-05-06T14:15:59.986Z,94246.28
2023-05-06T14:18:27.521Z,94234.75
2023-05-06T14:20:54.688Z,94237.34
2023-05-06T14:23:21.358Z,94230.38
2023-05-06T14:25:48.685Z,94225.44
2023-05-06T14:28:15.859Z,94224.66
2023-05-06T14:30:42.712Z,94224.22
2023-05-06T14:33:09.916Z,94234.16
2023-05-06T14:35:41.733Z,94239.31
2023-05-06T14:38:09.132Z,94233.56
2023-05-06T14:40:37.075Z,94226.25
2023-05-06T14:43:04.178Z,94217.72
2023-05-06T14:45:31.115Z,94224.13
2023-05-06T14:47:58.095Z,94224.41
2023-05-06T14:50:24.865Z,94220.06
2023-05-06T14:52:51.601Z,94215.66
2023-05-06T14:55:18.633Z,94223.22
2023-05-06T14:57:45.269Z,94225.31
2023-05-06T15:00:14.832Z,94223.81
2023-05-06T15:02:42.103Z,94223.94
2023-05-06T15:05:10.290Z,94226.25
2023-05-06T15:07:37.149Z,94226.78
2023-05-06T15:10:04.287Z,94230.72
2023-05-06T15:12:31.085Z,94227.31
2023-05-06T15:14:57.876Z,94230.47
2023-05-06T15:17:24.971Z,94226.72
2023-05-06T15:19:51.790Z,94228.69
2023-05-06T15:22:18.489Z,94221.94
2023-05-06T15:24:45.479Z,94224.13
2023-05-06T15:27:12.211Z,94224.88
2023-05-06T15:29:39.461Z,94226.47
2023-05-06T15:32:06.307Z,94216.41
2023-05-06T15:34:33.096Z,94222.66
2023-05-06T15:37:01.903Z,94221.50
2023-05-06T15:39:28.765Z,94234.75
2023-05-06T15:41:58.214Z,94237.47
2023-05-06T15:46:53.303Z,94231.34
2023-05-06T15:49:47.273Z,94227.91
2023-05-06T15:52:06.584Z,94234.53
2023-05-06T15:54:37.052Z,94233.81
2023-05-06T15:57:07.398Z,94219.13
2023-05-06T15:59:34.235Z,94223.78
2023-05-06T16:02:26.080Z,94222.59
2023-05-06T16:04:47.822Z,94222.94
2023-05-06T16:07:15.355Z,94232.25
2023-05-06T16:09:42.840Z,94222.94
2023-05-06T16:12:10.123Z,94229.16
2023-05-06T16:14:37.036Z,94219.06
2023-05-06T16:17:03.747Z,94216.72
2023-05-06T16:19:32.156Z,94221.00
2023-05-06T16:21:58.784Z,94221.38
2023-05-06T16:24:25.457Z,94216.41
2023-05-06T16:26:52.201Z,94221.50
2023-05-06T16:29:20.696Z,94224.22
2023-05-06T16:31:48.653Z,94223.84
2023-05-06T16:34:15.436Z,94236.72
2023-05-06T16:36:42.083Z,94226.28
2023-05-06T16:39:08.768Z,94228.59
2023-05-06T16:41:35.490Z,94231.69
2023-05-06T16:44:02.143Z,94221.59
2023-05-06T16:46:29.026Z,94219.22
2023-05-06T16:48:56.085Z,94232.44
2023-05-06T16:51:22.792Z,94214.56
2023-05-06T16:53:49.446Z,94219.59
2023-05-06T16:56:16.176Z,94228.13
2023-05-06T16:58:42.956Z,94215.69
2023-05-06T17:01:09.750Z,94219.19
2023-05-06T17:03:40.365Z,94215.31
2023-05-06T17:06:07.897Z,94220.72
2023-05-06T17:08:36.412Z,94204.41
2023-05-06T17:11:07.136Z,94218.00
2023-05-06T17:13:34.339Z,94214.91
2023-05-06T17:16:01.177Z,94212.16
2023-05-06T17:18:27.881Z,94218.38
2023-05-06T17:20:56.982Z,94209.84
2023-05-06T17:23:24.669Z,94199.75
2023-05-06T17:25:51.855Z,94208.31
2023-05-06T17:31:05.264Z,94205.47
2023-05-06T17:33:31.964Z,94205.78
2023-05-06T17:35:58.744Z,94212.38
2023-05-06T17:38:25.708Z,94205.34
2023-05-06T17:40:52.524Z,94194.47
2023-05-06T17:43:19.326Z,94211.50
2023-05-06T17:45:46.146Z,94200.97
2023-05-06T17:48:13.007Z,94202.13
2023-05-06T17:50:39.723Z,94199.00
2023-05-06T17:53:06.437Z,94201.69
2023-05-06T17:55:33.083Z,94197.75
2023-05-06T17:57:59.857Z,94203.97
2023-05-06T18:00:26.897Z,94201.63
2023-05-06T18:02:53.755Z,94190.75
2023-05-06T18:05:21.777Z,94192.22
2023-05-06T18:07:48.511Z,94205.72
2023-05-06T18:10:15.147Z,94190.13
2023-05-06T18:12:42.002Z,94198.25
2023-05-06T18:15:09.329Z,94188.47
2023-05-06T18:17:36.218Z,94195.84
2023-05-06T18:20:03.437Z,94195.09
2023-05-06T18:22:30.114Z,94195.81
2023-05-06T18:24:56.778Z,94204.31
2023-05-06T18:27:23.811Z,94201.47
2023-05-06T18:29:50.474Z,94198.28
2023-05-06T18:32:18.123Z,94201.72
2023-05-06T18:34:44.877Z,94203.22
2023-05-06T18:37:11.580Z,94207.50
2023-05-06T18:39:42.650Z,94213.28
2023-05-06T18:42:09.542Z,94214.72
2023-05-06T18:44:36.225Z,94216.97
2023-05-06T18:47:02.960Z,94220.88
2023-05-06T18:49:31.163Z,94204.94
2023-05-06T18:51:58.013Z,94218.91
2023-05-06T18:54:24.718Z,94220.03
2023-05-06T18:56:54.979Z,94210.59
2023-05-06T18:59:22.073Z,94227.69
2023-05-06T19:01:48.751Z,94231.56
2023-05-06T19:04:16.465Z,94237.25
2023-05-06T19:06:43.360Z,94247.66
2023-05-06T19:09:11.337Z,94240.31
2023-05-06T19:11:38.089Z,94251.50
2023-05-06T19:14:04.716Z,94242.88
2023-05-06T19:16:31.412Z,94251.00
2023-05-06T19:18:58.074Z,94251.31
2023-05-06T19:21:24.777Z,94253.25
2023-05-06T19:23:51.636Z,94245.84
2023-05-06T19:26:18.324Z,94250.91
2023-05-06T19:28:45.016Z,94254.38
2023-05-06T19:31:11.880Z,94261.31
2023-05-06T19:33:39.268Z,94263.66
2023-05-06T19:36:06.711Z,94257.34
2023-05-06T19:38:33.952Z,94265.94
2023-05-06T19:41:01.174Z,94267.03
2023-05-06T19:43:27.935Z,94273.78
2023-05-06T19:45:54.626Z,94266.97
2023-05-06T19:48:23.592Z,94269.53
2023-05-06T19:50:51.036Z,94271.00
2023-05-06T19:53:17.976Z,94255.66
2023-05-06T19:55:44.670Z,94266.50
2023-05-06T19:58:11.650Z,94264.50
2023-05-06T20:00:38.694Z,94267.94
2023-05-06T20:03:05.732Z,94265.16
2023-05-06T20:05:32.581Z,94258.47
2023-05-06T20:08:00.016Z,94266.81
2023-05-06T20:10:27.468Z,94258.97
2023-05-06T20:12:57.195Z,94251.22
2023-05-06T20:15:24.404Z,94245.81
2023-05-06T20:17:51.142Z,94256.63
2023-05-06T20:20:19.141Z,94255.13
2023-05-06T20:22:46.066Z,94255.06
2023-05-06T20:25:17.526Z,94264.59
2023-05-06T20:27:45.434Z,94264.16
2023-05-06T20:30:12.412Z,94260.97
2023-05-06T20:32:40.392Z,94259.09
2023-05-06T20:35:07.786Z,94256.84
2023-05-06T20:37:35.392Z,94260.06
2023-05-06T20:40:04.745Z,94253.22
2023-05-06T20:42:31.870Z,94252.88
2023-05-06T20:44:59.306Z,94254.06
2023-05-06T20:47:26.582Z,94254.50
2023-05-06T20:49:53.530Z,94252.16
2023-05-06T20:52:21.572Z,94251.78
2023-05-06T20:54:48.878Z,94255.34
2023-05-06T20:57:16.691Z,94246.00
2023-05-06T20:59:43.851Z,94255.84
2023-05-06T21:02:10.725Z,94254.72
2023-05-06T21:04:37.551Z,94241.25
2023-05-06T21:07:04.347Z,94241.13
2023-05-06T21:09:31.079Z,94239.22
2023-05-06T21:11:58.942Z,94246.28
2023-05-06T21:14:26.609Z,94247.50
2023-05-06T21:16:53.371Z,94253.31
2023-05-06T21:19:20.045Z,94243.38
2023-05-06T21:21:46.896Z,94248.34
2023-05-06T21:24:13.735Z,94244.66
2023-05-06T21:26:40.368Z,94248.59
2023-05-06T21:29:06.981Z,94255.38
2023-05-06T21:31:33.876Z,94259.75
2023-05-06T21:34:00.667Z,94252.56
2023-05-06T21:36:27.318Z,94253.56
2023-05-06T21:39:13.999Z,94250.34
2023-05-06T21:41:40.931Z,94253.69
2023-05-06T21:44:09.239Z,94248.56
2023-05-06T21:46:37.624Z,94246.94
2023-05-06T21:49:04.783Z,94243.38
2023-05-06T21:51:33.276Z,94238.19
2023-05-06T21:53:59.933Z,94242.81
2023-05-06T21:56:27.011Z,94254.78
2023-05-06T21:58:55.821Z,94236.19
2023-05-06T22:01:26.055Z,94240.03
2023-05-06T22:03:53.882Z,94249.34
2023-05-06T22:06:21.114Z,94244.72
2023-05-06T22:08:47.791Z,94243.78
2023-05-06T22:11:14.611Z,94234.47
2023-05-06T22:13:41.277Z,94238.38
2023-05-06T22:16:08.207Z,94244.28
2023-05-06T22:18:35.989Z,94237.84
2023-05-06T22:21:03.356Z,94233.97
2023-05-06T22:23:30.121Z,94238.97
2023-05-06T22:25:58.505Z,94240.66
2023-05-06T22:28:26.054Z,94231.81
2023-05-06T22:30:52.699Z,94231.91
2023-05-06T22:33:19.385Z,94229.84
2023-05-06T22:35:46.052Z,94219.31
2023-05-06T22:38:12.698Z,94230.19
2023-05-06T22:40:39.333Z,94222.53
2023-05-06T22:43:06.049Z,94230.63
2023-05-06T22:45:32.740Z,94225.50
2023-05-06T22:47:59.421Z,94224.28
2023-05-06T22:50:26.107Z,94223.06
2023-05-06T22:52:52.808Z,94225.22
2023-05-06T22:55:19.537Z,94234.09
2023-05-06T22:57:49.829Z,94234.09
2023-05-06T23:00:17.492Z,94220.28
2023-05-06T23:02:44.338Z,94225.75
2023-05-06T23:05:12.524Z,94215.66
2023-05-06T23:07:39.531Z,94215.19
2023-05-06T23:10:06.788Z,94217.44
2023-05-06T23:12:34.689Z,94218.56
2023-05-06T23:15:01.732Z,94212.09
2023-05-06T23:17:28.423Z,94217.31
2023-05-06T23:19:55.118Z,94220.97
2023-05-06T23:22:21.851Z,94223.13
2023-05-06T23:24:48.506Z,94223.91
2023-05-06T23:27:15.255Z,94218.44
2023-05-06T23:29:41.902Z,94217.94
2023-05-06T23:32:08.579Z,94221.56
2023-05-06T23:34:35.204Z,94220.78
2023-05-06T23:37:01.924Z,94206.19
2023-05-06T23:39:28.570Z,94207.31
2023-05-06T23:41:55.266Z,94207.75
2023-05-06T23:44:22.538Z,94204.38
2023-05-06T23:46:49.380Z,94210.44
2023-05-06T23:49:16.035Z,94217.28
2023-05-06T23:51:42.669Z,94213.28
2023-05-06T23:54:09.605Z,94213.81
2023-05-06T23:56:36.325Z,94216.19
2023-05-06T23:59:03.036Z,94216.03
